LESA/SLM METAR and TAF weather

Enter ICAO airport designator
Station Type Date Time Source
LESA METAR 2020/01/27 11:00 UTC NOAA

LESA 271100Z 23020G30KT 9999 FEW014 SCT038 08/06 Q1022


Station Type Date Time Source
LESA Decoded METAR 2020/01/27 11:00 UTC NOAA

Salamanca / Matacan, Spain (LESA) 40-57N 005-30W 795M
Jan 27, 2020 - 06:00 AM EST / 2020.01.27 1100 UTC
Wind: from the SW (230 degrees) at 23 MPH (20 KT) gusting to 35 MPH (30 KT):0
Visibility: greater than 7 mile(s):0
Sky conditions: partly cloudy
Temperature: 46 F (8 C)
Dew Point: 42 F (6 C)
Relative Humidity: 87%
Pressure (altimeter): 30.18 in. Hg (1022 hPa)
ob: LESA 271100Z 23020G30KT 9999 FEW014 SCT038 08/06 Q1022
cycle: 11

Station Type Date Time Source
LESA TAF 2020/01/27 06:27 UTC NOAA

TAF TAF LESA 270500Z 2706/2806 22011KT 9999 SCT020 BKN040 TX09/2715Z TN03/2706Z PROB40
TEMPO 2706/2710 2500 BR BKN007 PROB30
TEMPO 2711/2717 22015G25KT PROB40
TEMPO 2718/2806 3000 DZRA BR BKN012 PROB30
TEMPO 2805/2806 0500 FG BKN002

Example: see airport list